Time;durP1;ratioP1;P1;durP2;ratioP2;P2;SDS_P1;SDS_P2;PMS_P1;PMS_P2;Temp;Humidity;BMP_temperature;BMP_pressure;BME280_temperature;BME280_humidity;BME280_pressure;Samples;Min_cycle;Max_cycle;Signal;HPM_P1;HPM_P2
2022/08/15 00:00:07;;;;;;;7.70;5.72;;;;;;;19.19;88.24;99427.84;5027829;28;20405;-71
2022/08/15 00:02:33;;;;;;;7.95;6.45;;;;;;;19.18;87.96;99418.59;5026445;28;20037;-71
2022/08/15 00:04:58;;;;;;;7.50;6.63;;;;;;;19.16;88.96;99414.53;5016196;28;20029;-71
2022/08/15 00:07:24;;;;;;;9.48;6.85;;;;;;;19.12;88.49;99416.50;5030118;28;20430;-71
2022/08/15 00:09:49;;;;;;;8.43;7.50;;;;;;;19.11;88.80;99409.25;4988119;28;20038;-71
2022/08/15 00:12:15;;;;;;;9.13;7.60;;;;;;;19.10;89.18;99410.44;5024489;28;20053;-71
2022/08/15 00:14:40;;;;;;;10.95;7.40;;;;;;;19.10;89.15;99404.81;5029212;28;20037;-71
2022/08/15 00:17:09;;;;;;;8.07;7.28;;;;;;;19.06;89.12;99406.78;5032434;28;20029;-71
2022/08/15 00:19:35;;;;;;;11.05;7.95;;;;;;;19.06;88.90;99404.75;5029204;28;20053;-71
2022/08/15 00:22:04;;;;;;;9.82;7.63;;;;;;;19.00;88.83;99400.66;5043699;28;20033;-71
2022/08/15 00:24:31;;;;;;;11.05;8.30;;;;;;;18.99;88.63;99399.00;5014118;28;20508;-71
2022/08/15 00:26:57;;;;;;;10.70;8.65;;;;;;;19.02;88.83;99397.44;5050871;28;20072;-70
2022/08/15 00:29:24;;;;;;;9.88;8.52;;;;;;;18.96;89.14;99402.59;5055885;28;20024;-71
2022/08/15 00:31:51;;;;;;;10.68;8.57;;;;;;;18.93;89.08;99403.34;5042340;28;20037;-71
2022/08/15 00:34:16;;;;;;;11.20;9.55;;;;;;;18.90;89.08;99401.28;5011602;28;20029;-71
2022/08/15 00:36:43;;;;;;;11.05;9.05;;;;;;;18.89;88.72;99397.66;5030304;28;20040;-71
2022/08/15 00:39:08;;;;;;;12.38;8.90;;;;;;;18.87;88.66;99396.41;5021873;28;20033;-71
2022/08/15 00:41:40;;;;;;;10.85;9.07;;;;;;;18.84;89.28;99402.81;5017327;28;20033;-71
2022/08/15 00:44:16;;;;;;;10.75;9.48;;;;;;;18.85;88.81;99393.16;5026010;28;20029;-71
2022/08/15 00:46:50;;;;;;;13.88;9.40;;;;;;;18.84;88.98;99397.16;5007506;28;20036;-71
2022/08/15 00:49:16;;;;;;;10.20;9.20;;;;;;;18.81;89.42;99397.94;5021200;28;20437;-71
2022/08/15 00:51:49;;;;;;;10.52;9.45;;;;;;;18.81;88.96;99400.75;5054925;28;20108;-71
2022/08/15 00:54:20;;;;;;;10.52;9.43;;;;;;;18.81;89.76;99398.72;5010030;28;20025;-71
2022/08/15 00:56:58;;;;;;;13.07;9.93;;;;;;;18.85;89.67;99395.97;5009863;28;20052;-71
2022/08/15 00:59:25;;;;;;;12.07;9.98;;;;;;;18.83;89.72;99395.53;5021905;28;20059;-71
2022/08/15 01:01:50;;;;;;;11.85;10.65;;;;;;;18.79;90.29;99389.84;5020490;28;20041;-71
2022/08/15 01:04:16;;;;;;;11.68;9.55;;;;;;;18.83;90.04;99401.16;5031511;28;20041;-71
2022/08/15 01:06:43;;;;;;;12.15;9.57;;;;;;;18.80;89.02;99396.28;4997034;28;20119;-71
2022/08/15 01:09:09;;;;;;;11.40;10.32;;;;;;;18.83;90.20;99396.34;5027878;28;20387;-71
2022/08/15 01:11:44;;;;;;;14.90;12.60;;;;;;;18.84;89.79;99394.38;5018768;28;20404;-71
2022/08/15 01:14:10;;;;;;;11.73;10.20;;;;;;;18.86;89.99;99397.59;5017648;28;20384;-71
2022/08/15 01:16:38;;;;;;;15.27;10.35;;;;;;;18.88;90.32;99398.03;5028882;28;20032;-71
2022/08/15 01:19:09;;;;;;;12.18;10.88;;;;;;;18.84;90.11;99409.22;4992976;28;20393;-71
2022/08/15 01:21:38;;;;;;;12.50;11.20;;;;;;;18.82;90.55;99399.53;5005086;28;20050;-71
2022/08/15 01:24:09;;;;;;;12.00;10.73;;;;;;;18.85;90.56;99402.41;5003382;28;20113;-71
2022/08/15 01:26:35;;;;;;;12.75;10.65;;;;;;;18.86;90.55;99401.22;5020471;28;20043;-71
2022/08/15 01:29:00;;;;;;;14.13;12.43;;;;;;;18.86;90.55;99401.22;5026755;28;20061;-71
2022/08/15 01:31:26;;;;;;;13.52;11.55;;;;;;;18.87;89.60;99408.47;5036833;28;20040;-71
2022/08/15 01:33:54;;;;;;;13.57;11.55;;;;;;;18.87;90.04;99402.84;5036603;28;20366;-71
2022/08/15 01:36:21;;;;;;;16.02;12.80;;;;;;;18.87;90.46;99400.03;5024933;28;20108;-71
2022/08/15 01:38:51;;;;;;;15.32;12.55;;;;;;;18.90;90.22;99399.28;4980833;28;20029;-71
2022/08/15 01:41:26;;;;;;;20.77;14.65;;;;;;;18.87;91.30;99396.41;5017204;28;20021;-71
2022/08/15 01:44:04;;;;;;;15.00;12.98;;;;;;;18.92;90.61;99396.91;5034785;28;20099;-71
2022/08/15 01:46:32;;;;;;;14.45;12.95;;;;;;;18.88;90.26;99393.22;5024339;28;20033;-71
2022/08/15 01:49:05;;;;;;;16.25;13.30;;;;;;;18.92;90.84;99390.47;5025038;28;20047;-70
2022/08/15 01:51:30;;;;;;;17.88;13.55;;;;;;;18.91;90.62;99395.25;5024987;28;20037;-71
2022/08/15 01:54:00;;;;;;;17.30;14.52;;;;;;;18.90;90.75;99399.28;5034755;28;20078;-71
2022/08/15 01:56:34;;;;;;;19.30;13.85;;;;;;;18.89;90.14;99394.03;4989542;28;20120;-71
2022/08/15 01:59:03;;;;;;;15.70;14.02;;;;;;;18.89;90.65;99399.66;5057519;28;20036;-71
2022/08/15 02:01:39;;;;;;;16.48;14.45;;;;;;;18.90;91.52;99401.28;5033341;28;20496;-71
2022/08/15 02:04:05;;;;;;;16.27;14.40;;;;;;;18.90;90.49;99399.28;5035087;28;20103;-71
2022/08/15 02:06:30;;;;;;;16.02;14.32;;;;;;;18.91;89.89;99394.47;5021458;28;20025;-71
2022/08/15 02:08:56;;;;;;;19.40;15.77;;;;;;;18.92;90.51;99393.28;5055548;28;20516;-71
2022/08/15 02:11:24;;;;;;;18.23;16.38;;;;;;;18.91;91.45;99391.66;5024455;28;20129;-71
2022/08/15 02:13:53;;;;;;;18.02;15.10;;;;;;;18.90;90.33;99390.84;4995955;28;20470;-70
2022/08/15 02:16:19;;;;;;;17.98;15.32;;;;;;;18.90;90.72;99393.66;5031336;28;20059;-71
2022/08/15 02:18:45;;;;;;;15.27;13.68;;;;;;;18.91;90.07;99392.44;5051201;28;20031;-71
2022/08/15 02:21:10;;;;;;;20.48;15.93;;;;;;;18.90;89.69;99390.84;5057341;28;20402;-71
2022/08/15 02:23:36;;;;;;;22.25;17.30;;;;;;;18.90;90.09;99385.22;5025697;28;20068;-71
2022/08/15 02:26:02;;;;;;;17.55;15.30;;;;;;;18.89;90.13;99377.97;5027365;28;20033;-71
2022/08/15 02:28:28;;;;;;;18.02;15.55;;;;;;;18.90;90.20;99381.59;5031399;28;20385;-71
2022/08/15 02:30:53;;;;;;;17.63;15.13;;;;;;;18.87;90.56;99376.72;5037565;28;20040;-70
2022/08/15 02:33:19;;;;;;;17.92;16.08;;;;;;;18.87;90.35;99380.34;5003773;28;20021;-71
2022/08/15 02:35:45;;;;;;;20.27;17.25;;;;;;;18.86;90.88;99378.72;5006658;28;20063;-70
2022/08/15 02:38:10;;;;;;;17.05;15.25;;;;;;;18.84;90.37;99381.09;5046472;28;20025;-71
2022/08/15 02:40:36;;;;;;;17.60;15.73;;;;;;;18.83;90.82;99373.03;5021841;28;20029;-71
2022/08/15 02:43:09;;;;;;;22.00;16.40;;;;;;;18.83;90.59;99373.84;5020185;28;20509;-71
2022/08/15 02:45:38;;;;;;;17.70;15.57;;;;;;;18.83;91.06;99373.03;5047742;28;20081;-71
2022/08/15 02:48:13;;;;;;;20.58;16.92;;;;;;;18.81;90.76;99373.41;4992033;28;20031;-71
2022/08/15 02:50:38;;;;;;;20.85;16.75;;;;;;;18.81;91.12;99372.63;5002202;28;20116;-71
2022/08/15 02:53:12;;;;;;;25.85;17.58;;;;;;;18.82;91.23;99372.22;5017744;28;20048;-71
2022/08/15 02:55:37;;;;;;;18.67;15.80;;;;;;;18.83;91.07;99373.84;5023168;28;20025;-71
2022/08/15 02:58:03;;;;;;;18.52;15.15;;;;;;;18.82;90.52;99369.41;5023742;28;20036;-71
2022/08/15 03:00:29;;;;;;;20.15;16.10;;;;;;;18.80;90.72;99371.78;5031614;28;20041;-70
2022/08/15 03:02:59;;;;;;;22.15;16.05;;;;;;;18.80;90.39;99368.97;5049915;28;20615;-70
2022/08/15 03:05:26;;;;;;;20.45;17.35;;;;;;;18.80;90.41;99371.78;5021668;28;20029;-71
2022/08/15 03:07:52;;;;;;;19.25;16.63;;;;;;;18.80;90.00;99371.78;5003713;28;20033;-70
2022/08/15 03:10:17;;;;;;;19.10;16.35;;;;;;;18.79;90.66;99366.53;5030743;28;20037;-70
2022/08/15 03:12:56;;;;;;;19.50;16.88;;;;;;;18.79;90.57;99370.16;5029068;28;20029;-71
2022/08/15 03:15:25;;;;;;;19.55;16.67;;;;;;;18.77;90.34;99369.72;5028442;28;20025;-71
2022/08/15 03:17:51;;;;;;;21.88;16.75;;;;;;;18.78;91.00;99374.19;4992326;28;20392;-71
2022/08/15 03:20:18;;;;;;;21.13;16.70;;;;;;;18.79;90.72;99370.16;5016709;28;20045;-70
2022/08/15 03:22:45;;;;;;;22.02;17.27;;;;;;;18.78;90.73;99367.72;5032374;28;20036;-71
2022/08/15 03:25:10;;;;;;;19.25;16.35;;;;;;;18.78;90.38;99371.38;5031090;28;20033;-71
2022/08/15 03:27:36;;;;;;;19.20;16.58;;;;;;;18.78;90.55;99371.38;5037197;28;20414;-71
2022/08/15 03:30:03;;;;;;;22.85;18.90;;;;;;;18.76;90.98;99373.75;5035905;28;20037;-70
2022/08/15 03:32:29;;;;;;;19.75;17.13;;;;;;;18.72;90.39;99372.81;5041879;28;20029;-70
2022/08/15 03:34:54;;;;;;;20.70;16.55;;;;;;;18.72;90.52;99372.81;5049077;28;20475;-70
2022/08/15 03:37:20;;;;;;;18.65;15.82;;;;;;;18.72;90.16;99368.03;5022416;28;20029;-70
2022/08/15 03:39:45;;;;;;;19.80;16.48;;;;;;;18.71;90.83;99371.19;5020484;28;20033;-71
2022/08/15 03:42:11;;;;;;;20.52;16.48;;;;;;;18.66;90.34;99365.91;5046879;28;20030;-70
2022/08/15 03:44:36;;;;;;;20.33;17.83;;;;;;;18.66;90.83;99363.09;5044772;28;20505;-71
2022/08/15 03:47:02;;;;;;;20.27;17.20;;;;;;;18.65;90.95;99361.47;5030028;28;20059;-71
2022/08/15 03:49:27;;;;;;;19.75;16.63;;;;;;;18.63;90.73;99361.03;5004334;28;20432;-71
2022/08/15 03:51:54;;;;;;;20.23;16.52;;;;;;;18.62;90.41;99363.03;5022001;28;20067;-70
2022/08/15 03:54:19;;;;;;;23.67;17.20;;;;;;;18.61;90.01;99360.59;5026224;28;20025;-71
2022/08/15 03:56:45;;;;;;;18.85;16.35;;;;;;;18.60;90.56;99359.78;5031266;28;20029;-70
2022/08/15 03:59:10;;;;;;;22.95;16.45;;;;;;;18.58;90.65;99362.13;5049326;28;20036;-71
2022/08/15 04:01:37;;;;;;;21.50;17.30;;;;;;;18.56;90.80;99358.09;5005629;28;20685;-70
2022/08/15 04:04:04;;;;;;;19.95;16.33;;;;;;;18.57;90.92;99351.28;5032921;28;20060;-70
2022/08/15 04:06:29;;;;;;;21.17;16.67;;;;;;;18.56;90.35;99347.66;5041831;28;20060;-71
2022/08/15 04:08:55;;;;;;;19.35;16.25;;;;;;;18.52;90.28;99347.59;5019115;28;20453;-71
2022/08/15 04:11:22;;;;;;;19.10;14.98;;;;;;;18.53;90.17;99342.81;5034133;28;20025;-71
2022/08/15 04:13:48;;;;;;;21.05;15.80;;;;;;;18.49;90.26;99342.72;5019599;28;20056;-70
2022/08/15 04:16:14;;;;;;;18.38;15.65;;;;;;;18.49;89.96;99342.72;5038891;28;20036;-71
2022/08/15 04:18:39;;;;;;;19.38;15.38;;;;;;;18.49;90.31;99337.09;5027778;28;20037;-70
2022/08/15 04:21:06;;;;;;;19.10;16.05;;;;;;;18.49;90.67;99339.91;5014376;28;20098;-71
2022/08/15 04:23:32;;;;;;;20.35;15.40;;;;;;;18.47;90.29;99338.66;4985425;28;20067;-71
2022/08/15 04:25:58;;;;;;;17.15;14.73;;;;;;;18.45;89.84;99347.50;5002400;28;20041;-71
2022/08/15 04:28:24;;;;;;;19.42;15.90;;;;;;;18.43;90.50;99349.03;5024787;28;20457;-71
2022/08/15 04:30:50;;;;;;;17.88;15.45;;;;;;;18.38;90.23;99361.41;4995479;28;20081;-70
2022/08/15 04:33:22;;;;;;;19.88;16.23;;;;;;;18.39;90.26;99356.63;5035298;28;20037;-70
2022/08/15 04:35:53;;;;;;;18.73;16.10;;;;;;;18.36;89.83;99361.00;4987253;28;20033;-70
2022/08/15 04:38:19;;;;;;;17.50;15.35;;;;;;;18.33;89.89;99361.75;4990458;28;20036;-70
2022/08/15 04:40:45;;;;;;;19.55;15.75;;;;;;;18.34;89.78;99363.34;5043746;28;20025;-71
2022/08/15 04:43:11;;;;;;;17.75;15.50;;;;;;;18.31;90.50;99359.28;5028225;28;20112;-71
2022/08/15 04:45:38;;;;;;;18.63;15.48;;;;;;;18.30;90.15;99362.47;5018120;28;20051;-71
2022/08/15 04:48:04;;;;;;;17.60;15.02;;;;;;;18.32;90.34;99368.53;5016953;28;20052;-71
2022/08/15 04:50:31;;;;;;;21.27;15.18;;;;;;;18.29;90.45;99360.84;5007186;28;20428;-71
2022/08/15 04:52:57;;;;;;;18.05;14.80;;;;;;;18.28;90.73;99365.66;5001601;28;20025;-71
2022/08/15 04:55:24;;;;;;;18.98;15.93;;;;;;;18.28;90.43;99365.66;5017414;28;20036;-71
2022/08/15 04:57:50;;;;;;;17.92;15.32;;;;;;;18.27;90.96;99364.00;5035936;28;20032;-70
2022/08/15 05:00:17;;;;;;;19.25;14.60;;;;;;;18.26;90.50;99358.78;5014972;28;20079;-71
2022/08/15 05:02:55;;;;;;;18.33;14.95;;;;;;;18.28;90.91;99362.03;5031272;28;20033;-70
2022/08/15 05:05:21;;;;;;;19.67;16.20;;;;;;;18.26;91.16;99355.97;5010927;28;20025;-70
2022/08/15 05:07:46;;;;;;;17.55;14.48;;;;;;;18.24;90.56;99356.34;5004406;28;20037;-71
2022/08/15 05:10:12;;;;;;;18.30;15.77;;;;;;;18.26;90.78;99351.16;5041689;28;20040;-71
2022/08/15 05:12:37;;;;;;;20.45;15.20;;;;;;;18.25;91.10;99359.97;5014084;28;20543;-70
2022/08/15 05:15:03;;;;;;;19.50;16.15;;;;;;;18.27;91.26;99380.06;5017193;28;20032;-71
2022/08/15 05:17:28;;;;;;;20.17;14.43;;;;;;;18.25;90.69;99372.03;5035118;28;20511;-71
2022/08/15 05:19:54;;;;;;;17.08;14.93;;;;;;;18.27;90.79;99385.69;5058567;28;20124;-71
2022/08/15 05:22:19;;;;;;;17.55;14.98;;;;;;;18.25;90.77;99376.84;5042929;28;20036;-70
2022/08/15 05:24:45;;;;;;;19.45;15.52;;;;;;;18.26;90.96;99372.84;5048041;28;20095;-71
2022/08/15 05:27:10;;;;;;;17.25;14.85;;;;;;;18.26;91.10;99358.78;5049763;28;20063;-71
2022/08/15 05:29:36;;;;;;;19.60;15.95;;;;;;;18.26;91.23;99361.59;5057119;28;20036;-70
2022/08/15 05:32:05;;;;;;;18.50;15.65;;;;;;;18.28;91.61;99364.84;5054024;28;20030;-70
2022/08/15 05:34:31;;;;;;;17.45;15.20;;;;;;;18.29;91.47;99358.03;5011023;28;20075;-70
2022/08/15 05:36:56;;;;;;;19.58;14.98;;;;;;;18.28;90.90;99360.03;5046704;28;20033;-71
2022/08/15 05:39:23;;;;;;;20.58;16.17;;;;;;;18.28;91.27;99362.03;5037107;28;20044;-70
2022/08/15 05:42:10;;;;;;;20.27;15.63;;;;;;;18.29;91.64;99349.59;5056477;28;20055;-71
2022/08/15 05:44:48;;;;;;;17.50;14.82;;;;;;;18.29;91.06;99352.41;5046667;28;20108;-71
2022/08/15 05:47:36;;;;;;;21.15;15.60;;;;;;;18.30;90.61;99362.47;5046560;28;20037;-71
2022/08/15 05:50:30;;;;;;;17.13;14.80;;;;;;;18.30;91.42;99366.09;5047164;28;20030;-71
2022/08/15 05:53:16;;;;;;;20.65;15.43;;;;;;;18.32;91.47;99376.97;5053974;28;20122;-70
2022/08/15 05:55:47;;;;;;;18.27;15.88;;;;;;;18.34;91.51;99374.59;5002885;28;20028;-71
2022/08/15 05:58:26;;;;;;;19.80;16.08;;;;;;;18.36;91.13;99375.03;5042465;28;20037;-70
2022/08/15 06:01:01;;;;;;;19.70;15.68;;;;;;;18.39;90.92;99387.53;5031339;28;20032;-71
2022/08/15 06:03:27;;;;;;;18.85;15.25;;;;;;;18.38;91.33;99378.28;5008103;28;20548;-70
2022/08/15 06:05:57;;;;;;;21.63;15.88;;;;;;;18.38;91.37;99391.50;5022655;28;20025;-70
2022/08/15 06:08:28;;;;;;;22.63;16.73;;;;;;;18.39;91.84;99388.34;5016419;28;20505;-70
2022/08/15 06:11:02;;;;;;;20.90;15.93;;;;;;;18.39;90.52;99382.72;5024349;28;20476;-70
2022/08/15 06:13:34;;;;;;;20.65;16.00;;;;;;;18.43;91.60;99389.22;5020012;28;20025;-70
2022/08/15 06:16:16;;;;;;;18.97;16.20;;;;;;;18.41;90.85;99380.31;5024430;28;20024;-70
2022/08/15 06:18:42;;;;;;;30.05;20.65;;;;;;;18.44;93.72;99376.78;5026883;28;20029;-70
2022/08/15 06:21:28;;;;;;;23.13;17.25;;;;;;;18.45;92.47;99374.78;5044104;28;20145;-70
2022/08/15 06:24:08;;;;;;;22.55;16.63;;;;;;;18.46;91.92;99377.22;5000178;28;20029;-70
2022/08/15 06:27:08;;;;;;;21.23;16.42;;;;;;;18.48;91.28;99374.03;5024520;28;20124;-70
2022/08/15 06:29:36;;;;;;;22.35;16.33;;;;;;;18.51;91.16;99382.53;5046194;28;20022;-70
2022/08/15 06:32:09;;;;;;;20.23;15.30;;;;;;;18.54;91.21;99392.22;5024669;28;20046;-70
2022/08/15 06:34:53;;;;;;;19.58;15.98;;;;;;;18.57;91.18;99385.03;5050932;28;20120;-70
2022/08/15 06:37:26;;;;;;;18.30;16.10;;;;;;;18.61;91.36;99375.47;5053665;28;20045;-70
2022/08/15 06:40:15;;;;;;;21.75;16.92;;;;;;;18.66;92.44;99374.31;5014950;28;20029;-70
2022/08/15 06:42:42;;;;;;;25.98;18.38;;;;;;;18.69;92.85;99379.19;5027473;28;20025;-70
2022/08/15 06:45:13;;;;;;;27.75;21.00;;;;;;;18.72;93.62;99381.25;5029554;28;20032;-70
2022/08/15 06:47:39;;;;;;;23.05;16.95;;;;;;;18.77;92.73;99380.97;5023673;28;20033;-70
2022/08/15 06:50:23;;;;;;;18.52;16.02;;;;;;;18.83;92.79;99379.47;5023454;28;20025;-70
2022/08/15 06:52:54;;;;;;;23.77;17.73;;;;;;;18.90;93.59;99382.41;5020099;28;20026;-70
2022/08/15 06:55:20;;;;;;;18.67;15.98;;;;;;;18.96;91.97;99380.06;5019152;28;20028;-70
2022/08/15 06:58:11;;;;;;;28.38;20.13;;;;;;;19.04;94.20;99383.81;5030766;28;20029;-70
2022/08/15 07:00:41;;;;;;;25.75;19.08;;;;;;;19.10;92.79;99393.56;5029325;28;20540;-70
2022/08/15 07:03:19;;;;;;;23.45;19.27;;;;;;;19.17;95.29;99393.69;5006045;28;20029;-70
2022/08/15 07:05:54;;;;;;;25.42;18.52;;;;;;;19.25;94.38;99388.94;5027431;28;20054;-70
2022/08/15 07:08:38;;;;;;;23.25;18.83;;;;;;;19.31;93.90;99393.06;5031926;28;20032;-70
2022/08/15 07:11:30;;;;;;;23.45;18.98;;;;;;;19.39;93.28;99406.06;5045421;28;20040;-70
2022/08/15 07:14:04;;;;;;;24.35;18.17;;;;;;;19.47;92.51;99404.94;5030517;28;20121;-70
2022/08/15 07:17:03;;;;;;;28.92;20.10;;;;;;;19.52;92.64;99404.63;4993102;28;20063;-70
2022/08/15 07:19:29;;;;;;;21.42;18.75;;;;;;;19.56;92.59;99399.06;5029927;28;20102;-70
2022/08/15 07:21:54;;;;;;;37.45;20.95;;;;;;;19.61;93.04;99402.34;4986099;28;20028;-70
2022/08/15 07:24:20;;;;;;;29.55;21.30;;;;;;;19.65;93.05;99402.38;5022748;28;20537;-70
2022/08/15 07:26:49;;;;;;;27.00;18.33;;;;;;;19.67;92.38;99411.31;5044194;28;20054;-70
2022/08/15 07:29:25;;;;;;;26.40;20.75;;;;;;;19.69;93.08;99410.91;5044768;28;20033;-70
2022/08/15 07:31:51;;;;;;;27.70;22.73;;;;;;;19.73;92.21;99403.31;5031079;28;20032;-70
2022/08/15 07:34:22;;;;;;;23.92;18.48;;;;;;;19.77;91.69;99401.34;5005136;28;20119;-70
2022/08/15 07:37:03;;;;;;;24.50;20.75;;;;;;;19.80;92.54;99412.66;5017762;28;20030;-70
2022/08/15 07:39:29;;;;;;;24.63;18.60;;;;;;;19.86;92.31;99413.13;5011789;28;20028;-70
2022/08/15 07:41:55;;;;;;;30.25;22.30;;;;;;;19.90;91.86;99408.38;5017813;28;20113;-70
2022/08/15 07:44:29;;;;;;;26.50;18.42;;;;;;;19.95;91.88;99415.69;5006149;28;20056;-70
2022/08/15 07:46:55;;;;;;;24.70;18.65;;;;;;;19.99;91.68;99408.06;5031561;28;20544;-70
2022/08/15 07:49:34;;;;;;;24.98;19.58;;;;;;;20.03;91.84;99412.56;5051621;28;20037;-70
2022/08/15 07:52:32;;;;;;;30.08;21.08;;;;;;;20.09;92.09;99413.03;5044705;28;20032;-70
2022/08/15 07:55:11;;;;;;;23.88;19.45;;;;;;;20.16;91.54;99410.28;5015100;28;20040;-70
2022/08/15 07:57:37;;;;;;;24.15;18.27;;;;;;;20.21;91.75;99412.75;5048231;28;20067;-70
2022/08/15 08:00:21;;;;;;;24.67;17.75;;;;;;;20.28;91.49;99414.81;5056262;28;20029;-70
2022/08/15 08:02:46;;;;;;;24.88;18.80;;;;;;;20.35;91.46;99411.28;5052604;28;20481;-70
2022/08/15 08:05:12;;;;;;;23.13;17.40;;;;;;;20.42;91.23;99408.53;5033073;28;20083;-70
2022/08/15 08:07:45;;;;;;;28.63;20.60;;;;;;;20.50;91.07;99404.59;5050231;28;20029;-70
2022/08/15 08:11:03;;;;;;;24.60;19.67;;;;;;;20.59;90.77;99422.03;5038046;28;20075;-70
2022/08/15 08:13:38;;;;;;;29.35;22.75;;;;;;;20.67;90.82;99409.63;5021781;28;20061;-70
2022/08/15 08:16:37;;;;;;;27.55;20.50;;;;;;;20.77;90.38;99412.94;5011553;28;20382;-70
2022/08/15 08:19:06;;;;;;;28.92;22.60;;;;;;;20.86;90.40;99419.84;5019582;28;20485;-70
2022/08/15 08:21:55;;;;;;;23.60;19.20;;;;;;;20.98;90.24;99416.75;5018786;28;20141;-70
2022/08/15 08:24:44;;;;;;;27.85;21.20;;;;;;;21.09;89.34;99416.84;5023828;28;20355;-71
2022/08/15 08:28:06;;;;;;;33.17;26.45;;;;;;;21.23;89.39;99426.59;5017001;28;20300;-71
2022/08/15 08:30:50;;;;;;;30.88;22.98;;;;;;;21.40;88.90;99431.59;4986705;28;20109;-71
2022/08/15 08:33:57;;;;;;;23.30;19.15;;;;;;;21.57;87.65;99435.75;4957090;28;20126;-70
2022/08/15 08:36:27;;;;;;;25.92;20.45;;;;;;;21.70;86.72;99444.66;4957481;28;20535;-71
2022/08/15 08:39:14;;;;;;;29.10;20.42;;;;;;;21.83;86.26;99443.13;4953832;28;20042;-70
2022/08/15 08:41:50;;;;;;;28.55;21.55;;;;;;;21.93;86.57;99430.28;4972303;28;20113;-70
2022/08/15 08:44:44;;;;;;;25.50;20.85;;;;;;;22.01;85.03;99435.56;4975593;28;20046;-71
2022/08/15 08:47:35;;;;;;;26.08;21.13;;;;;;;22.16;86.41;99425.09;4963733;28;20062;-70
2022/08/15 08:50:39;;;;;;;28.10;21.25;;;;;;;22.31;85.43;99425.97;4978741;28;20030;-70
2022/08/15 08:53:28;;;;;;;34.15;24.13;;;;;;;22.44;84.26;99415.91;4959419;28;20038;-70
2022/08/15 08:56:15;;;;;;;31.25;21.60;;;;;;;22.61;82.98;99417.16;4970228;28;20065;-71
2022/08/15 08:58:45;;;;;;;26.15;20.92;;;;;;;22.71;82.56;99419.19;4981681;28;20046;-70
2022/08/15 09:01:15;;;;;;;27.80;19.95;;;;;;;22.84;81.35;99422.41;4967220;28;20031;-70
2022/08/15 09:03:46;;;;;;;26.85;20.98;;;;;;;22.96;81.19;99424.09;4975673;28;20042;-70
2022/08/15 09:06:13;;;;;;;27.52;19.08;;;;;;;23.10;80.65;99432.59;5030910;28;20045;-70
2022/08/15 09:08:51;;;;;;;28.02;20.17;;;;;;;23.21;79.61;99446.75;5017128;28;20393;-70
2022/08/15 09:11:22;;;;;;;26.67;21.27;;;;;;;23.28;80.52;99428.91;5027440;28;20726;-70
2022/08/15 09:13:49;;;;;;;23.38;20.05;;;;;;;23.37;79.53;99432.97;4999242;28;20381;-71
2022/08/15 09:16:15;;;;;;;27.05;22.00;;;;;;;23.50;80.66;99432.53;5015526;28;20025;-70
2022/08/15 09:18:48;;;;;;;25.83;20.73;;;;;;;23.63;80.76;99433.72;5023115;28;20071;-70
2022/08/15 09:21:13;;;;;;;;;;;;;;;23.76;79.63;99443.41;5008943;28;20049;-70
2022/08/15 09:23:40;;;;;;;31.40;21.60;;;;;;;23.92;80.02;99447.81;5045138;28;19980;-70
2022/08/15 09:26:30;;;;;;;29.23;21.77;;;;;;;24.05;77.61;99440.50;5002363;28;20274;-70
2022/08/15 09:29:27;;;;;;;24.58;20.38;;;;;;;24.27;76.78;99450.53;5047950;28;20056;-70
2022/08/15 09:32:16;;;;;;;22.63;18.85;;;;;;;24.41;75.22;99449.63;4998586;28;20068;-71
2022/08/15 09:35:12;;;;;;;25.13;19.13;;;;;;;24.61;74.79;99447.09;5030909;28;20032;-70
2022/08/15 09:37:57;;;;;;;26.25;20.15;;;;;;;24.83;75.02;99453.44;5035315;28;20036;-70
2022/08/15 09:40:52;;;;;;;25.30;18.38;;;;;;;25.08;71.88;99443.94;5013233;28;20067;-70
2022/08/15 09:43:33;;;;;;;22.85;17.73;;;;;;;25.30;71.34;99438.91;5014684;28;20033;-70
2022/08/15 09:46:35;;;;;;;23.60;18.80;;;;;;;25.56;70.11;99443.91;5007302;28;20029;-70
2022/08/15 09:49:19;;;;;;;22.80;17.10;;;;;;;25.79;68.92;99443.25;5046575;28;20077;-70
2022/08/15 09:51:50;;;;;;;22.25;17.23;;;;;;;25.95;67.74;99442.69;5018088;28;20025;-70
2022/08/15 09:54:23;;;;;;;18.65;16.00;;;;;;;26.08;66.91;99451.50;5046417;28;20603;-73
2022/08/15 09:57:22;;;;;;;21.80;16.98;;;;;;;26.17;66.52;99459.50;5015786;28;20029;-70
2022/08/15 09:59:51;;;;;;;20.75;16.85;;;;;;;26.27;67.13;99455.69;5018249;28;20044;-70
2022/08/15 10:02:16;;;;;;;19.92;17.75;;;;;;;26.32;67.33;99469.44;5023293;28;20037;-70
2022/08/15 10:04:47;;;;;;;22.15;16.33;;;;;;;26.44;66.79;99468.06;5048601;28;20048;-70
2022/08/15 10:07:13;;;;;;;18.95;15.85;;;;;;;26.56;66.67;99463.91;5056073;28;20037;-70
2022/08/15 10:09:43;;;;;;;22.80;17.40;;;;;;;26.63;66.82;99467.44;5053461;28;20083;-70
2022/08/15 10:12:09;;;;;;;23.67;15.93;;;;;;;26.67;66.18;99470.25;5056793;28;20032;-70
2022/08/15 10:14:39;;;;;;;19.55;15.05;;;;;;;26.77;65.01;99471.31;5016799;28;20029;-70
2022/08/15 10:17:33;;;;;;;16.73;14.55;;;;;;;26.86;64.38;99480.13;5029392;28;20059;-69
2022/08/15 10:20:19;;;;;;;18.98;14.90;;;;;;;26.93;63.47;99471.47;5058322;28;20254;-70
2022/08/15 10:22:57;;;;;;;17.10;15.27;;;;;;;26.99;63.22;99472.59;5008647;28;20084;-69
2022/08/15 10:25:22;;;;;;;18.40;15.27;;;;;;;27.09;61.64;99477.31;4994103;28;20079;-70
2022/08/15 10:28:10;;;;;;;20.55;16.92;;;;;;;27.13;60.75;99463.00;5048957;28;20032;-70
2022/08/15 10:30:44;;;;;;;19.02;15.15;;;;;;;27.15;61.58;99469.09;5004384;28;20564;-70
2022/08/15 10:33:34;;;;;;;19.17;14.82;;;;;;;27.23;60.58;99470.59;5007414;28;20028;-70
2022/08/15 10:36:16;;;;;;;20.42;14.88;;;;;;;27.26;60.04;99460.38;5052459;28;20025;-70
2022/08/15 10:38:51;;;;;;;21.05;16.13;;;;;;;27.34;59.84;99461.88;5022357;28;20441;-70
2022/08/15 10:41:47;;;;;;;18.73;15.27;;;;;;;27.40;60.80;99458.09;4997133;28;20025;-70
2022/08/15 10:44:30;;;;;;;20.70;14.63;;;;;;;27.54;59.50;99459.88;5039563;28;20037;-70
2022/08/15 10:47:13;;;;;;;;;;;;;;;27.71;59.96;99466.47;5040731;28;20032;-71
2022/08/15 10:49:44;;;;;;;21.95;13.85;;;;;;;27.87;59.68;99467.88;5048583;28;19963;-70
2022/08/15 10:53:00;;;;;;;15.53;13.87;;;;;;;28.09;58.00;99453.97;5051693;28;20037;-70
2022/08/15 10:55:29;;;;;;;16.92;12.63;;;;;;;28.32;56.80;99461.63;4999376;28;20061;-70
2022/08/15 10:58:20;;;;;;;16.00;13.43;;;;;;;28.49;55.23;99454.75;5004381;28;20040;-70
2022/08/15 11:00:57;;;;;;;15.65;12.25;;;;;;;28.69;54.83;99454.72;5032057;28;20039;-70
2022/08/15 11:03:46;;;;;;;13.75;12.15;;;;;;;28.87;53.94;99454.31;5005419;28;20436;-70
2022/08/15 11:06:13;;;;;;;17.35;12.57;;;;;;;29.05;55.27;99463.25;5015250;28;20508;-70
2022/08/15 11:08:49;;;;;;;15.50;11.52;;;;;;;29.23;54.52;99473.47;5006572;28;20242;-70
2022/08/15 11:11:16;;;;;;;14.77;12.20;;;;;;;29.30;53.14;99467.56;5052177;28;20044;-70
2022/08/15 11:13:42;;;;;;;15.43;11.15;;;;;;;29.41;53.31;99459.50;5020762;28;20436;-70
2022/08/15 11:16:22;;;;;;;14.75;11.30;;;;;;;29.46;53.33;99470.41;5020294;28;20049;-70
2022/08/15 11:18:50;;;;;;;14.20;12.48;;;;;;;29.52;51.24;99462.88;5012476;28;20087;-70
2022/08/15 11:21:31;;;;;;;12.80;10.85;;;;;;;29.55;51.92;99466.91;5022852;28;20095;-70
2022/08/15 11:23:59;;;;;;;13.45;11.45;;;;;;;29.60;52.61;99463.50;5007798;28;20040;-70
2022/08/15 11:26:27;;;;;;;15.30;11.00;;;;;;;29.64;52.88;99458.50;5028606;28;20040;-70
2022/08/15 11:29:25;;;;;;;16.30;12.85;;;;;;;29.70;51.48;99453.88;5035340;28;20040;-70
2022/08/15 11:31:53;;;;;;;12.18;10.38;;;;;;;29.77;52.08;99459.38;5013967;28;20040;-70
2022/08/15 11:34:22;;;;;;;14.88;11.25;;;;;;;29.80;50.18;99464.19;5006237;28;20465;-70
2022/08/15 11:36:49;;;;;;;12.20;11.00;;;;;;;29.85;51.08;99480.00;5021047;28;20029;-70
2022/08/15 11:39:15;;;;;;;15.63;10.15;;;;;;;29.92;49.84;99471.25;5022035;28;20397;-70
2022/08/15 11:41:43;;;;;;;12.88;10.13;;;;;;;29.99;49.29;99468.16;5007868;28;20024;-70
2022/08/15 11:44:09;;;;;;;14.75;10.95;;;;;;;30.03;48.54;99457.44;5021260;28;20033;-70